100LL.CA
Aviation Fuel Pricing for Canadians
Please upgrade your browser - Tested with IE9, FireFox, Chrome, Safari

Fuel Airports Other Help
Prices Economy Info List METAR/TAF Kneeboard Help

Enter a list of
Airport Idents:
Sort Method: As Entered    By Ident   

CYVR
METAR CYVR 200800Z 08007KT 20SM FEW057 BKN089 OVC240 05/03 A3014 RMK SC1AC4CS3 SLP209
TAF CYVR 200538Z 2006/2112 07005KT P6SM SCT040 TEMPO 2006/2012 BKN040 FM201200 VRB03KT P6SM FEW025 BKN200 BECMG 2016/2018 30010KT FM210200 08008KT P6SM SCT030 TEMPO 2102/2112 BKN030 RMK NXT FCST BY 200900Z
CYXX
METAR CYXX 200800Z 34002KT 10SM VCFG BKN036 OVC220 03/03 A3016 RMK SC7CS1 FG BANK NE-E VIS 4 SLP215
TAF CYXX 200538Z 2006/2106 VRB03KT P6SM SCT030 BKN200 PROB30 2006/2015 3/4SM BR FM201500 04008KT P6SM BKN200 FM210300 14005KT P6SM SCT020 TEMPO 2103/2106 BKN020 RMK NXT FCST BY 201200Z
KBLI
METAR KBLI 200753Z 16003KT 10SM SCT038 OVC049 06/04 A3015 RMK AO2 SLP216 T00610044 401170044
TAF KBLI 200520Z 2006/2106 VRB04KT P6SM SCT070 BKN090 FM201100 02004KT P6SM SCT030 BKN150 FM201800 02009KT P6SM SCT040 BKN150 FM202200 33005KT P6SM FEW010 BKN160


Please Send Updates!

Desktop Version ]  [ Mobile Version ]  [ Disclaimer ]